sensor_id;sensor_type;location;lat;lon;timestamp;P1;durP1;ratioP1;P2;durP2;ratioP2
6436;SDS011;3251;53.550;9.918;2022-10-20T00:00:54;16.03;;;2.20;;
6436;SDS011;3251;53.550;9.918;2022-10-20T00:03:21;5.30;;;1.83;;
6436;SDS011;3251;53.550;9.918;2022-10-20T00:05:47;1.50;;;1.40;;
6436;SDS011;3251;53.550;9.918;2022-10-20T00:08:13;1.87;;;1.77;;
6436;SDS011;3251;53.550;9.918;2022-10-20T00:10:39;4.43;;;2.03;;
6436;SDS011;3251;53.550;9.918;2022-10-20T00:13:05;1.33;;;1.20;;
6436;SDS011;3251;53.550;9.918;2022-10-20T00:15:32;3.90;;;1.53;;
6436;SDS011;3251;53.550;9.918;2022-10-20T00:17:58;2.30;;;1.63;;
6436;SDS011;3251;53.550;9.918;2022-10-20T00:20:24;2.00;;;1.90;;
6436;SDS011;3251;53.550;9.918;2022-10-20T00:22:50;5.57;;;1.63;;
6436;SDS011;3251;53.550;9.918;2022-10-20T00:25:16;1.70;;;1.60;;
6436;SDS011;3251;53.550;9.918;2022-10-20T00:27:42;2.00;;;1.90;;
6436;SDS011;3251;53.550;9.918;2022-10-20T00:30:08;1.70;;;1.60;;
6436;SDS011;3251;53.550;9.918;2022-10-20T00:32:34;1.33;;;1.23;;
6436;SDS011;3251;53.550;9.918;2022-10-20T00:35:00;2.40;;;2.20;;
6436;SDS011;3251;53.550;9.918;2022-10-20T00:37:26;2.50;;;1.70;;
6436;SDS011;3251;53.550;9.918;2022-10-20T00:39:52;2.37;;;2.10;;
6436;SDS011;3251;53.550;9.918;2022-10-20T00:42:18;3.90;;;2.17;;
6436;SDS011;3251;53.550;9.918;2022-10-20T00:44:46;2.67;;;1.80;;
6436;SDS011;3251;53.550;9.918;2022-10-20T00:47:13;2.70;;;2.00;;
6436;SDS011;3251;53.550;9.918;2022-10-20T00:49:39;4.50;;;1.43;;
6436;SDS011;3251;53.550;9.918;2022-10-20T00:52:06;3.83;;;1.63;;
6436;SDS011;3251;53.550;9.918;2022-10-20T00:54:32;1.90;;;1.30;;
6436;SDS011;3251;53.550;9.918;2022-10-20T00:56:59;3.73;;;2.30;;
6436;SDS011;3251;53.550;9.918;2022-10-20T00:59:26;2.90;;;2.63;;
6436;SDS011;3251;53.550;9.918;2022-10-20T01:01:53;3.23;;;3.00;;
6436;SDS011;3251;53.550;9.918;2022-10-20T01:04:19;5.17;;;1.80;;
6436;SDS011;3251;53.550;9.918;2022-10-20T01:06:45;6.00;;;2.00;;
6436;SDS011;3251;53.550;9.918;2022-10-20T01:09:11;7.53;;;2.77;;
6436;SDS011;3251;53.550;9.918;2022-10-20T01:11:50;1.90;;;1.67;;
6436;SDS011;3251;53.550;9.918;2022-10-20T01:14:28;1.43;;;1.33;;
6436;SDS011;3251;53.550;9.918;2022-10-20T01:17:05;3.57;;;2.00;;
6436;SDS011;3251;53.550;9.918;2022-10-20T01:27:27;2.00;;;1.80;;
6436;SDS011;3251;53.550;9.918;2022-10-20T01:30:00;2.43;;;1.70;;
6436;SDS011;3251;53.550;9.918;2022-10-20T01:32:40;6.13;;;2.27;;
6436;SDS011;3251;53.550;9.918;2022-10-20T01:35:15;2.13;;;1.80;;
6436;SDS011;3251;53.550;9.918;2022-10-20T01:42:57;2.00;;;1.63;;
6436;SDS011;3251;53.550;9.918;2022-10-20T01:45:24;2.40;;;1.37;;
6436;SDS011;3251;53.550;9.918;2022-10-20T01:47:52;2.10;;;2.00;;
6436;SDS011;3251;53.550;9.918;2022-10-20T01:50:19;2.27;;;1.43;;
6436;SDS011;3251;53.550;9.918;2022-10-20T01:52:45;2.70;;;1.83;;
6436;SDS011;3251;53.550;9.918;2022-10-20T01:55:12;7.40;;;1.23;;
6436;SDS011;3251;53.550;9.918;2022-10-20T02:00:11;3.60;;;1.70;;
6436;SDS011;3251;53.550;9.918;2022-10-20T02:05:38;9.60;;;2.47;;
6436;SDS011;3251;53.550;9.918;2022-10-20T02:08:19;5.37;;;1.93;;
6436;SDS011;3251;53.550;9.918;2022-10-20T02:10:51;2.23;;;2.13;;
6436;SDS011;3251;53.550;9.918;2022-10-20T02:13:18;1.87;;;1.77;;
6436;SDS011;3251;53.550;9.918;2022-10-20T02:15:52;1.70;;;1.60;;
6436;SDS011;3251;53.550;9.918;2022-10-20T02:18:20;3.67;;;2.13;;
6436;SDS011;3251;53.550;9.918;2022-10-20T02:20:48;6.00;;;3.60;;
6436;SDS011;3251;53.550;9.918;2022-10-20T02:23:15;1.97;;;1.87;;
6436;SDS011;3251;53.550;9.918;2022-10-20T02:25:41;3.73;;;1.80;;
6436;SDS011;3251;53.550;9.918;2022-10-20T02:28:11;1.87;;;1.50;;
6436;SDS011;3251;53.550;9.918;2022-10-20T02:30:38;2.70;;;1.70;;
6436;SDS011;3251;53.550;9.918;2022-10-20T02:33:05;2.57;;;2.30;;
6436;SDS011;3251;53.550;9.918;2022-10-20T02:35:31;3.87;;;1.90;;
6436;SDS011;3251;53.550;9.918;2022-10-20T02:37:59;2.83;;;1.80;;
6436;SDS011;3251;53.550;9.918;2022-10-20T02:40:25;3.67;;;1.93;;
6436;SDS011;3251;53.550;9.918;2022-10-20T02:42:51;2.70;;;1.97;;
6436;SDS011;3251;53.550;9.918;2022-10-20T02:45:18;6.70;;;2.37;;
6436;SDS011;3251;53.550;9.918;2022-10-20T02:47:44;3.73;;;2.30;;
6436;SDS011;3251;53.550;9.918;2022-10-20T02:50:10;5.57;;;2.17;;
6436;SDS011;3251;53.550;9.918;2022-10-20T02:52:36;3.03;;;2.83;;
6436;SDS011;3251;53.550;9.918;2022-10-20T02:55:03;2.03;;;1.93;;
6436;SDS011;3251;53.550;9.918;2022-10-20T02:57:29;3.70;;;2.40;;
6436;SDS011;3251;53.550;9.918;2022-10-20T02:59:56;12.57;;;2.37;;
6436;SDS011;3251;53.550;9.918;2022-10-20T03:02:22;2.83;;;2.27;;
6436;SDS011;3251;53.550;9.918;2022-10-20T03:04:48;12.93;;;2.67;;
6436;SDS011;3251;53.550;9.918;2022-10-20T03:07:14;6.70;;;3.97;;
6436;SDS011;3251;53.550;9.918;2022-10-20T03:09:40;4.80;;;2.00;;
6436;SDS011;3251;53.550;9.918;2022-10-20T03:12:06;2.90;;;2.50;;
6436;SDS011;3251;53.550;9.918;2022-10-20T03:14:32;4.87;;;2.30;;
6436;SDS011;3251;53.550;9.918;2022-10-20T03:16:58;12.57;;;2.70;;
6436;SDS011;3251;53.550;9.918;2022-10-20T03:19:24;2.30;;;2.10;;
6436;SDS011;3251;53.550;9.918;2022-10-20T03:21:51;5.10;;;2.90;;
6436;SDS011;3251;53.550;9.918;2022-10-20T03:24:17;3.87;;;2.47;;
6436;SDS011;3251;53.550;9.918;2022-10-20T03:26:43;2.63;;;2.43;;
6436;SDS011;3251;53.550;9.918;2022-10-20T03:29:09;4.03;;;2.20;;
6436;SDS011;3251;53.550;9.918;2022-10-20T03:31:35;4.70;;;2.17;;
6436;SDS011;3251;53.550;9.918;2022-10-20T03:34:01;3.50;;;2.73;;
6436;SDS011;3251;53.550;9.918;2022-10-20T03:36:27;6.27;;;2.23;;
6436;SDS011;3251;53.550;9.918;2022-10-20T03:38:53;5.93;;;2.57;;
6436;SDS011;3251;53.550;9.918;2022-10-20T03:41:19;5.23;;;2.67;;
6436;SDS011;3251;53.550;9.918;2022-10-20T03:43:45;5.03;;;2.53;;
6436;SDS011;3251;53.550;9.918;2022-10-20T03:46:11;7.00;;;2.00;;
6436;SDS011;3251;53.550;9.918;2022-10-20T03:48:38;5.57;;;2.70;;
6436;SDS011;3251;53.550;9.918;2022-10-20T03:51:04;3.30;;;2.20;;
6436;SDS011;3251;53.550;9.918;2022-10-20T03:53:31;6.67;;;2.63;;
6436;SDS011;3251;53.550;9.918;2022-10-20T03:55:57;3.50;;;3.10;;
6436;SDS011;3251;53.550;9.918;2022-10-20T03:58:23;10.93;;;2.93;;
6436;SDS011;3251;53.550;9.918;2022-10-20T04:00:49;13.33;;;3.03;;
6436;SDS011;3251;53.550;9.918;2022-10-20T04:03:16;7.13;;;2.83;;
6436;SDS011;3251;53.550;9.918;2022-10-20T04:05:42;4.43;;;2.90;;
6436;SDS011;3251;53.550;9.918;2022-10-20T04:08:08;3.00;;;2.77;;
6436;SDS011;3251;53.550;9.918;2022-10-20T04:10:34;3.10;;;2.53;;
6436;SDS011;3251;53.550;9.918;2022-10-20T04:13:00;4.30;;;2.77;;
6436;SDS011;3251;53.550;9.918;2022-10-20T04:15:26;7.40;;;3.63;;
6436;SDS011;3251;53.550;9.918;2022-10-20T04:17:53;5.57;;;2.90;;
6436;SDS011;3251;53.550;9.918;2022-10-20T04:20:19;7.80;;;3.20;;
6436;SDS011;3251;53.550;9.918;2022-10-20T04:22:45;2.97;;;2.67;;
6436;SDS011;3251;53.550;9.918;2022-10-20T04:25:12;7.40;;;3.67;;
6436;SDS011;3251;53.550;9.918;2022-10-20T04:27:38;11.73;;;3.00;;
6436;SDS011;3251;53.550;9.918;2022-10-20T04:30:05;3.20;;;2.60;;
6436;SDS011;3251;53.550;9.918;2022-10-20T04:32:31;4.90;;;3.83;;
6436;SDS011;3251;53.550;9.918;2022-10-20T04:34:57;3.50;;;3.20;;
6436;SDS011;3251;53.550;9.918;2022-10-20T04:37:23;3.33;;;2.97;;
6436;SDS011;3251;53.550;9.918;2022-10-20T04:39:49;5.23;;;3.70;;
6436;SDS011;3251;53.550;9.918;2022-10-20T04:42:16;4.87;;;3.53;;
6436;SDS011;3251;53.550;9.918;2022-10-20T04:44:42;11.70;;;3.17;;
6436;SDS011;3251;53.550;9.918;2022-10-20T04:47:08;5.00;;;3.03;;
6436;SDS011;3251;53.550;9.918;2022-10-20T04:49:35;2.83;;;2.63;;
6436;SDS011;3251;53.550;9.918;2022-10-20T04:52:01;3.93;;;3.53;;
6436;SDS011;3251;53.550;9.918;2022-10-20T04:54:27;7.57;;;3.30;;
6436;SDS011;3251;53.550;9.918;2022-10-20T04:56:53;5.70;;;4.07;;
6436;SDS011;3251;53.550;9.918;2022-10-20T04:59:19;3.87;;;3.13;;
6436;SDS011;3251;53.550;9.918;2022-10-20T05:01:46;9.17;;;3.50;;
6436;SDS011;3251;53.550;9.918;2022-10-20T05:04:12;4.80;;;3.63;;
6436;SDS011;3251;53.550;9.918;2022-10-20T05:06:44;11.13;;;3.80;;
6436;SDS011;3251;53.550;9.918;2022-10-20T05:09:11;18.30;;;3.77;;
6436;SDS011;3251;53.550;9.918;2022-10-20T05:11:37;11.53;;;3.73;;
6436;SDS011;3251;53.550;9.918;2022-10-20T05:14:03;6.70;;;3.97;;
6436;SDS011;3251;53.550;9.918;2022-10-20T05:16:29;3.90;;;3.53;;
6436;SDS011;3251;53.550;9.918;2022-10-20T05:18:55;20.37;;;4.53;;
6436;SDS011;3251;53.550;9.918;2022-10-20T05:21:23;11.63;;;5.17;;
6436;SDS011;3251;53.550;9.918;2022-10-20T05:23:59;8.30;;;4.20;;
6436;SDS011;3251;53.550;9.918;2022-10-20T05:26:26;8.40;;;3.80;;
6436;SDS011;3251;53.550;9.918;2022-10-20T05:28:53;4.13;;;3.83;;
6436;SDS011;3251;53.550;9.918;2022-10-20T05:31:20;15.33;;;3.90;;
6436;SDS011;3251;53.550;9.918;2022-10-20T05:33:51;9.13;;;4.30;;
6436;SDS011;3251;53.550;9.918;2022-10-20T05:36:18;12.27;;;3.17;;
6436;SDS011;3251;53.550;9.918;2022-10-20T05:38:46;4.43;;;3.20;;
6436;SDS011;3251;53.550;9.918;2022-10-20T05:41:13;4.20;;;3.20;;
6436;SDS011;3251;53.550;9.918;2022-10-20T05:43:40;4.63;;;3.97;;
6436;SDS011;3251;53.550;9.918;2022-10-20T05:46:07;7.37;;;3.40;;
6436;SDS011;3251;53.550;9.918;2022-10-20T05:48:33;3.80;;;3.43;;
6436;SDS011;3251;53.550;9.918;2022-10-20T05:51:08;10.30;;;3.77;;
6436;SDS011;3251;53.550;9.918;2022-10-20T05:53:35;5.23;;;3.80;;
6436;SDS011;3251;53.550;9.918;2022-10-20T05:56:08;4.97;;;3.30;;
6436;SDS011;3251;53.550;9.918;2022-10-20T05:58:34;5.23;;;4.07;;
6436;SDS011;3251;53.550;9.918;2022-10-20T06:01:20;3.80;;;3.50;;
6436;SDS011;3251;53.550;9.918;2022-10-20T06:03:48;5.20;;;3.20;;
6436;SDS011;3251;53.550;9.918;2022-10-20T06:06:15;4.50;;;4.10;;
6436;SDS011;3251;53.550;9.918;2022-10-20T06:08:41;4.73;;;3.57;;
6436;SDS011;3251;53.550;9.918;2022-10-20T06:11:08;9.33;;;5.50;;
6436;SDS011;3251;53.550;9.918;2022-10-20T06:13:34;5.13;;;4.33;;
6436;SDS011;3251;53.550;9.918;2022-10-20T06:16:04;5.47;;;4.97;;
6436;SDS011;3251;53.550;9.918;2022-10-20T06:18:31;12.10;;;4.00;;
6436;SDS011;3251;53.550;9.918;2022-10-20T06:21:01;10.13;;;5.27;;
6436;SDS011;3251;53.550;9.918;2022-10-20T06:23:27;4.73;;;4.27;;
6436;SDS011;3251;53.550;9.918;2022-10-20T06:25:53;5.97;;;4.67;;
6436;SDS011;3251;53.550;9.918;2022-10-20T06:28:20;5.03;;;4.53;;
6436;SDS011;3251;53.550;9.918;2022-10-20T06:30:46;4.80;;;4.43;;
6436;SDS011;3251;53.550;9.918;2022-10-20T06:33:12;9.33;;;4.10;;
6436;SDS011;3251;53.550;9.918;2022-10-20T06:35:40;5.50;;;4.60;;
6436;SDS011;3251;53.550;9.918;2022-10-20T06:38:06;6.40;;;4.40;;
6436;SDS011;3251;53.550;9.918;2022-10-20T06:40:33;6.33;;;4.00;;
6436;SDS011;3251;53.550;9.918;2022-10-20T06:42:59;10.43;;;4.97;;
6436;SDS011;3251;53.550;9.918;2022-10-20T06:45:25;5.50;;;4.40;;
6436;SDS011;3251;53.550;9.918;2022-10-20T06:47:51;14.03;;;5.37;;
6436;SDS011;3251;53.550;9.918;2022-10-20T06:50:17;9.87;;;5.50;;
6436;SDS011;3251;53.550;9.918;2022-10-20T06:52:43;7.50;;;5.00;;
6436;SDS011;3251;53.550;9.918;2022-10-20T06:55:09;6.43;;;3.87;;
6436;SDS011;3251;53.550;9.918;2022-10-20T06:57:35;12.37;;;5.30;;
6436;SDS011;3251;53.550;9.918;2022-10-20T07:00:02;6.37;;;4.50;;
6436;SDS011;3251;53.550;9.918;2022-10-20T07:02:29;6.50;;;4.43;;
6436;SDS011;3251;53.550;9.918;2022-10-20T07:04:55;9.57;;;4.37;;
6436;SDS011;3251;53.550;9.918;2022-10-20T07:07:21;5.30;;;4.90;;
6436;SDS011;3251;53.550;9.918;2022-10-20T07:09:47;5.60;;;5.03;;
6436;SDS011;3251;53.550;9.918;2022-10-20T07:12:13;26.53;;;5.10;;
6436;SDS011;3251;53.550;9.918;2022-10-20T07:14:39;34.43;;;5.70;;
6436;SDS011;3251;53.550;9.918;2022-10-20T07:17:05;16.90;;;5.30;;
6436;SDS011;3251;53.550;9.918;2022-10-20T07:19:31;8.10;;;4.20;;
6436;SDS011;3251;53.550;9.918;2022-10-20T07:21:57;8.67;;;5.03;;
6436;SDS011;3251;53.550;9.918;2022-10-20T07:24:24;20.03;;;5.00;;
6436;SDS011;3251;53.550;9.918;2022-10-20T07:26:50;9.93;;;5.03;;
6436;SDS011;3251;53.550;9.918;2022-10-20T07:29:16;8.43;;;4.50;;
6436;SDS011;3251;53.550;9.918;2022-10-20T07:31:44;8.20;;;4.73;;
6436;SDS011;3251;53.550;9.918;2022-10-20T07:34:11;18.73;;;4.07;;
6436;SDS011;3251;53.550;9.918;2022-10-20T07:36:39;8.70;;;4.10;;
6436;SDS011;3251;53.550;9.918;2022-10-20T07:39:05;7.73;;;4.03;;
6436;SDS011;3251;53.550;9.918;2022-10-20T07:41:32;6.13;;;4.97;;
6436;SDS011;3251;53.550;9.918;2022-10-20T07:43:58;7.30;;;4.63;;
6436;SDS011;3251;53.550;9.918;2022-10-20T07:46:24;4.27;;;3.90;;
6436;SDS011;3251;53.550;9.918;2022-10-20T07:48:51;16.53;;;4.60;;
6436;SDS011;3251;53.550;9.918;2022-10-20T07:53:48;5.43;;;3.63;;
6436;SDS011;3251;53.550;9.918;2022-10-20T07:56:15;7.03;;;4.43;;
6436;SDS011;3251;53.550;9.918;2022-10-20T07:58:41;5.67;;;3.43;;
6436;SDS011;3251;53.550;9.918;2022-10-20T08:01:08;16.83;;;4.63;;
6436;SDS011;3251;53.550;9.918;2022-10-20T08:03:34;8.80;;;5.20;;
6436;SDS011;3251;53.550;9.918;2022-10-20T08:06:01;8.20;;;3.77;;
6436;SDS011;3251;53.550;9.918;2022-10-20T08:08:27;5.50;;;5.10;;
6436;SDS011;3251;53.550;9.918;2022-10-20T08:10:53;7.20;;;4.30;;
6436;SDS011;3251;53.550;9.918;2022-10-20T08:13:20;7.60;;;4.37;;
6436;SDS011;3251;53.550;9.918;2022-10-20T08:15:46;10.87;;;4.80;;
6436;SDS011;3251;53.550;9.918;2022-10-20T08:18:12;6.57;;;3.57;;
6436;SDS011;3251;53.550;9.918;2022-10-20T08:20:38;5.13;;;4.13;;
6436;SDS011;3251;53.550;9.918;2022-10-20T08:23:04;4.73;;;4.20;;
6436;SDS011;3251;53.550;9.918;2022-10-20T08:25:30;3.83;;;3.63;;
6436;SDS011;3251;53.550;9.918;2022-10-20T08:27:57;14.67;;;4.50;;
6436;SDS011;3251;53.550;9.918;2022-10-20T08:30:23;5.80;;;3.50;;
6436;SDS011;3251;53.550;9.918;2022-10-20T08:32:50;4.90;;;3.57;;
6436;SDS011;3251;53.550;9.918;2022-10-20T08:35:17;5.70;;;3.50;;
6436;SDS011;3251;53.550;9.918;2022-10-20T08:37:43;5.73;;;3.90;;
6436;SDS011;3251;53.550;9.918;2022-10-20T08:40:09;14.90;;;4.17;;
6436;SDS011;3251;53.550;9.918;2022-10-20T08:42:39;3.40;;;3.20;;
6436;SDS011;3251;53.550;9.918;2022-10-20T08:45:22;10.63;;;3.90;;
6436;SDS011;3251;53.550;9.918;2022-10-20T08:47:51;10.40;;;4.23;;
6436;SDS011;3251;53.550;9.918;2022-10-20T08:50:18;6.27;;;3.30;;
6436;SDS011;3251;53.550;9.918;2022-10-20T08:52:45;9.47;;;3.83;;
6436;SDS011;3251;53.550;9.918;2022-10-20T08:55:26;12.80;;;4.77;;
6436;SDS011;3251;53.550;9.918;2022-10-20T08:57:53;8.63;;;3.77;;
6436;SDS011;3251;53.550;9.918;2022-10-20T09:00:21;4.40;;;3.70;;
6436;SDS011;3251;53.550;9.918;2022-10-20T09:02:48;3.93;;;3.60;;
6436;SDS011;3251;53.550;9.918;2022-10-20T09:05:15;14.43;;;4.03;;
6436;SDS011;3251;53.550;9.918;2022-10-20T09:07:43;4.40;;;3.83;;
6436;SDS011;3251;53.550;9.918;2022-10-20T09:12:42;6.07;;;3.70;;
6436;SDS011;3251;53.550;9.918;2022-10-20T09:15:13;3.97;;;3.67;;
6436;SDS011;3251;53.550;9.918;2022-10-20T09:17:44;4.87;;;3.80;;
6436;SDS011;3251;53.550;9.918;2022-10-20T09:20:14;6.27;;;4.10;;
6436;SDS011;3251;53.550;9.918;2022-10-20T09:22:41;13.73;;;7.73;;
6436;SDS011;3251;53.550;9.918;2022-10-20T09:25:11;6.43;;;3.57;;
6436;SDS011;3251;53.550;9.918;2022-10-20T09:27:38;5.70;;;3.70;;
6436;SDS011;3251;53.550;9.918;2022-10-20T09:32:39;3.50;;;3.07;;
6436;SDS011;3251;53.550;9.918;2022-10-20T09:35:22;5.47;;;3.83;;
6436;SDS011;3251;53.550;9.918;2022-10-20T09:38:15;4.97;;;3.83;;
6436;SDS011;3251;53.550;9.918;2022-10-20T09:40:42;10.30;;;4.13;;
6436;SDS011;3251;53.550;9.918;2022-10-20T09:43:10;4.23;;;3.40;;
6436;SDS011;3251;53.550;9.918;2022-10-20T09:45:48;4.77;;;3.33;;
6436;SDS011;3251;53.550;9.918;2022-10-20T09:48:22;4.10;;;3.63;;
6436;SDS011;3251;53.550;9.918;2022-10-20T09:50:50;3.93;;;3.53;;
6436;SDS011;3251;53.550;9.918;2022-10-20T09:53:20;5.90;;;4.13;;
6436;SDS011;3251;53.550;9.918;2022-10-20T09:55:47;10.43;;;3.43;;
6436;SDS011;3251;53.550;9.918;2022-10-20T09:58:25;10.83;;;3.00;;
6436;SDS011;3251;53.550;9.918;2022-10-20T10:00:56;3.57;;;3.43;;
6436;SDS011;3251;53.550;9.918;2022-10-20T10:03:23;4.00;;;3.70;;
6436;SDS011;3251;53.550;9.918;2022-10-20T10:05:54;3.43;;;3.03;;
6436;SDS011;3251;53.550;9.918;2022-10-20T10:08:21;3.13;;;2.93;;
6436;SDS011;3251;53.550;9.918;2022-10-20T10:11:00;11.80;;;3.57;;
6436;SDS011;3251;53.550;9.918;2022-10-20T10:13:28;6.50;;;3.60;;
6436;SDS011;3251;53.550;9.918;2022-10-20T10:16:05;5.23;;;3.40;;
6436;SDS011;3251;53.550;9.918;2022-10-20T10:18:31;3.43;;;2.93;;
6436;SDS011;3251;53.550;9.918;2022-10-20T10:20:59;10.20;;;3.67;;
6436;SDS011;3251;53.550;9.918;2022-10-20T10:23:26;4.33;;;3.57;;
6436;SDS011;3251;53.550;9.918;2022-10-20T10:25:52;4.03;;;3.73;;
6436;SDS011;3251;53.550;9.918;2022-10-20T10:31:04;8.10;;;5.60;;
6436;SDS011;3251;53.550;9.918;2022-10-20T10:33:31;3.60;;;3.30;;
6436;SDS011;3251;53.550;9.918;2022-10-20T10:35:57;6.23;;;3.57;;
6436;SDS011;3251;53.550;9.918;2022-10-20T10:38:24;4.03;;;3.77;;
6436;SDS011;3251;53.550;9.918;2022-10-20T10:41:53;5.27;;;3.50;;
6436;SDS011;3251;53.550;9.918;2022-10-20T10:43:53;4.50;;;4.20;;
6436;SDS011;3251;53.550;9.918;2022-10-20T10:46:25;4.47;;;3.97;;
6436;SDS011;3251;53.550;9.918;2022-10-20T10:58:46;3.73;;;3.37;;
6436;SDS011;3251;53.550;9.918;2022-10-20T11:06:39;9.87;;;3.93;;
6436;SDS011;3251;53.550;9.918;2022-10-20T11:14:14;7.03;;;4.37;;
6436;SDS011;3251;53.550;9.918;2022-10-20T11:16:45;3.30;;;3.10;;
6436;SDS011;3251;53.550;9.918;2022-10-20T11:19:22;8.27;;;3.40;;
6436;SDS011;3251;53.550;9.918;2022-10-20T11:27:19;4.07;;;3.77;;
6436;SDS011;3251;53.550;9.918;2022-10-20T11:29:48;10.17;;;4.23;;
6436;SDS011;3251;53.550;9.918;2022-10-20T11:32:20;4.73;;;3.73;;
6436;SDS011;3251;53.550;9.918;2022-10-20T11:39:46;4.30;;;3.90;;
6436;SDS011;3251;53.550;9.918;2022-10-20T11:44:55;4.43;;;4.00;;
6436;SDS011;3251;53.550;9.918;2022-10-20T11:47:24;4.37;;;3.97;;
6436;SDS011;3251;53.550;9.918;2022-10-20T11:49:52;3.73;;;3.50;;
6436;SDS011;3251;53.550;9.918;2022-10-20T11:52:31;9.40;;;4.60;;
6436;SDS011;3251;53.550;9.918;2022-10-20T12:03:03;5.33;;;3.57;;
6436;SDS011;3251;53.550;9.918;2022-10-20T12:19:14;6.13;;;4.17;;
6436;SDS011;3251;53.550;9.918;2022-10-20T12:21:57;7.60;;;4.93;;
6436;SDS011;3251;53.550;9.918;2022-10-20T12:34:46;6.03;;;5.17;;
6436;SDS011;3251;53.550;9.918;2022-10-20T12:37:16;5.23;;;4.73;;
6436;SDS011;3251;53.550;9.918;2022-10-20T12:39:43;6.30;;;5.43;;
6436;SDS011;3251;53.550;9.918;2022-10-20T12:42:23;8.53;;;5.37;;
6436;SDS011;3251;53.550;9.918;2022-10-20T12:44:53;5.90;;;4.37;;
6436;SDS011;3251;53.550;9.918;2022-10-20T12:47:23;8.13;;;4.37;;
6436;SDS011;3251;53.550;9.918;2022-10-20T12:49:52;8.33;;;5.00;;
6436;SDS011;3251;53.550;9.918;2022-10-20T12:52:19;4.83;;;4.43;;
6436;SDS011;3251;53.550;9.918;2022-10-20T12:54:46;8.40;;;5.27;;
6436;SDS011;3251;53.550;9.918;2022-10-20T12:57:31;8.90;;;5.27;;
6436;SDS011;3251;53.550;9.918;2022-10-20T13:00:00;10.87;;;6.63;;
6436;SDS011;3251;53.550;9.918;2022-10-20T13:02:31;7.03;;;5.83;;
6436;SDS011;3251;53.550;9.918;2022-10-20T13:23:17;12.27;;;4.10;;
6436;SDS011;3251;53.550;9.918;2022-10-20T13:25:49;6.17;;;4.00;;
6436;SDS011;3251;53.550;9.918;2022-10-20T13:33:22;7.60;;;4.70;;
6436;SDS011;3251;53.550;9.918;2022-10-20T13:49:03;4.70;;;3.70;;
6436;SDS011;3251;53.550;9.918;2022-10-20T13:51:32;3.90;;;3.23;;
6436;SDS011;3251;53.550;9.918;2022-10-20T13:54:02;8.37;;;4.33;;
6436;SDS011;3251;53.550;9.918;2022-10-20T13:56:34;6.23;;;4.63;;
6436;SDS011;3251;53.550;9.918;2022-10-20T14:01:31;3.40;;;3.20;;
6436;SDS011;3251;53.550;9.918;2022-10-20T14:03:58;7.37;;;3.57;;
6436;SDS011;3251;53.550;9.918;2022-10-20T14:06:36;8.03;;;2.93;;
6436;SDS011;3251;53.550;9.918;2022-10-20T14:09:19;10.23;;;4.07;;
6436;SDS011;3251;53.550;9.918;2022-10-20T14:11:50;6.03;;;3.80;;
6436;SDS011;3251;53.550;9.918;2022-10-20T14:14:20;6.10;;;4.10;;
6436;SDS011;3251;53.550;9.918;2022-10-20T14:16:50;10.63;;;4.50;;
6436;SDS011;3251;53.550;9.918;2022-10-20T14:19:18;6.40;;;3.37;;
6436;SDS011;3251;53.550;9.918;2022-10-20T14:21:46;10.53;;;4.10;;
6436;SDS011;3251;53.550;9.918;2022-10-20T14:24:25;14.33;;;3.90;;
6436;SDS011;3251;53.550;9.918;2022-10-20T14:26:53;7.50;;;3.80;;
6436;SDS011;3251;53.550;9.918;2022-10-20T14:29:20;7.23;;;3.00;;
6436;SDS011;3251;53.550;9.918;2022-10-20T14:31:47;3.70;;;3.50;;
6436;SDS011;3251;53.550;9.918;2022-10-20T14:34:18;4.03;;;3.60;;
6436;SDS011;3251;53.550;9.918;2022-10-20T14:36:45;3.60;;;3.23;;
6436;SDS011;3251;53.550;9.918;2022-10-20T14:39:23;6.10;;;3.73;;
6436;SDS011;3251;53.550;9.918;2022-10-20T14:41:52;4.00;;;3.80;;
6436;SDS011;3251;53.550;9.918;2022-10-20T14:44:21;3.97;;;3.77;;
6436;SDS011;3251;53.550;9.918;2022-10-20T14:46:48;7.77;;;3.30;;
6436;SDS011;3251;53.550;9.918;2022-10-20T14:49:27;3.43;;;3.23;;
6436;SDS011;3251;53.550;9.918;2022-10-20T14:51:55;3.83;;;3.23;;
6436;SDS011;3251;53.550;9.918;2022-10-20T14:54:24;4.13;;;3.20;;
6436;SDS011;3251;53.550;9.918;2022-10-20T14:56:54;8.10;;;4.33;;
6436;SDS011;3251;53.550;9.918;2022-10-20T14:59:25;5.20;;;3.70;;
6436;SDS011;3251;53.550;9.918;2022-10-20T15:04:31;4.77;;;4.20;;
6436;SDS011;3251;53.550;9.918;2022-10-20T15:07:02;6.63;;;3.40;;
6436;SDS011;3251;53.550;9.918;2022-10-20T15:11:54;4.80;;;4.37;;
6436;SDS011;3251;53.550;9.918;2022-10-20T15:14:20;6.27;;;4.30;;
6436;SDS011;3251;53.550;9.918;2022-10-20T15:16:47;4.00;;;3.70;;
6436;SDS011;3251;53.550;9.918;2022-10-20T15:21:42;4.40;;;4.20;;
6436;SDS011;3251;53.550;9.918;2022-10-20T15:24:08;4.47;;;4.07;;
6436;SDS011;3251;53.550;9.918;2022-10-20T15:26:34;9.93;;;4.40;;
6436;SDS011;3251;53.550;9.918;2022-10-20T15:29:00;6.50;;;4.23;;
6436;SDS011;3251;53.550;9.918;2022-10-20T15:31:28;10.60;;;4.67;;
6436;SDS011;3251;53.550;9.918;2022-10-20T15:33:55;5.50;;;4.43;;
6436;SDS011;3251;53.550;9.918;2022-10-20T15:36:30;5.37;;;4.00;;
6436;SDS011;3251;53.550;9.918;2022-10-20T15:38:58;8.93;;;4.80;;
6436;SDS011;3251;53.550;9.918;2022-10-20T15:41:25;6.77;;;4.40;;
6436;SDS011;3251;53.550;9.918;2022-10-20T15:43:52;4.27;;;3.97;;
6436;SDS011;3251;53.550;9.918;2022-10-20T15:46:18;9.93;;;4.83;;
6436;SDS011;3251;53.550;9.918;2022-10-20T15:48:45;5.67;;;4.40;;
6436;SDS011;3251;53.550;9.918;2022-10-20T15:51:14;7.33;;;5.47;;
6436;SDS011;3251;53.550;9.918;2022-10-20T15:53:41;5.70;;;5.17;;
6436;SDS011;3251;53.550;9.918;2022-10-20T15:56:10;5.70;;;5.10;;
6436;SDS011;3251;53.550;9.918;2022-10-20T15:58:36;14.70;;;5.80;;
6436;SDS011;3251;53.550;9.918;2022-10-20T16:01:02;13.73;;;6.70;;
6436;SDS011;3251;53.550;9.918;2022-10-20T16:03:31;6.33;;;5.53;;
6436;SDS011;3251;53.550;9.918;2022-10-20T16:05:57;11.50;;;7.20;;
6436;SDS011;3251;53.550;9.918;2022-10-20T16:08:23;9.30;;;6.43;;
6436;SDS011;3251;53.550;9.918;2022-10-20T16:10:49;11.90;;;5.27;;
6436;SDS011;3251;53.550;9.918;2022-10-20T16:13:15;7.27;;;4.70;;
6436;SDS011;3251;53.550;9.918;2022-10-20T16:15:45;8.27;;;6.00;;
6436;SDS011;3251;53.550;9.918;2022-10-20T16:18:11;6.03;;;5.37;;
6436;SDS011;3251;53.550;9.918;2022-10-20T16:20:37;5.80;;;5.30;;
6436;SDS011;3251;53.550;9.918;2022-10-20T16:23:03;10.47;;;6.40;;
6436;SDS011;3251;53.550;9.918;2022-10-20T16:25:29;6.37;;;5.67;;
6436;SDS011;3251;53.550;9.918;2022-10-20T16:27:55;5.73;;;5.20;;
6436;SDS011;3251;53.550;9.918;2022-10-20T16:30:21;5.47;;;5.00;;
6436;SDS011;3251;53.550;9.918;2022-10-20T16:32:47;7.40;;;5.23;;
6436;SDS011;3251;53.550;9.918;2022-10-20T16:35:13;10.53;;;6.60;;
6436;SDS011;3251;53.550;9.918;2022-10-20T16:37:39;15.00;;;6.43;;
6436;SDS011;3251;53.550;9.918;2022-10-20T16:40:07;7.17;;;5.63;;
6436;SDS011;3251;53.550;9.918;2022-10-20T16:42:33;6.90;;;5.63;;
6436;SDS011;3251;53.550;9.918;2022-10-20T16:44:59;6.70;;;6.20;;
6436;SDS011;3251;53.550;9.918;2022-10-20T16:47:26;7.07;;;5.63;;
6436;SDS011;3251;53.550;9.918;2022-10-20T16:49:52;8.90;;;5.50;;
6436;SDS011;3251;53.550;9.918;2022-10-20T16:52:18;7.20;;;6.57;;
6436;SDS011;3251;53.550;9.918;2022-10-20T16:54:44;9.77;;;6.57;;
6436;SDS011;3251;53.550;9.918;2022-10-20T16:57:10;7.73;;;5.37;;
6436;SDS011;3251;53.550;9.918;2022-10-20T16:59:37;6.30;;;5.70;;
6436;SDS011;3251;53.550;9.918;2022-10-20T17:02:03;8.60;;;6.50;;
6436;SDS011;3251;53.550;9.918;2022-10-20T17:04:29;6.73;;;5.73;;
6436;SDS011;3251;53.550;9.918;2022-10-20T17:06:55;6.53;;;5.40;;
6436;SDS011;3251;53.550;9.918;2022-10-20T17:09:21;8.00;;;5.43;;
6436;SDS011;3251;53.550;9.918;2022-10-20T17:11:49;10.63;;;7.90;;
6436;SDS011;3251;53.550;9.918;2022-10-20T17:14:16;8.70;;;5.17;;
6436;SDS011;3251;53.550;9.918;2022-10-20T17:16:42;8.60;;;5.57;;
6436;SDS011;3251;53.550;9.918;2022-10-20T17:19:08;6.87;;;6.13;;
6436;SDS011;3251;53.550;9.918;2022-10-20T17:21:34;7.50;;;6.90;;
6436;SDS011;3251;53.550;9.918;2022-10-20T17:24:00;8.70;;;6.73;;
6436;SDS011;3251;53.550;9.918;2022-10-20T17:26:27;10.77;;;6.80;;
6436;SDS011;3251;53.550;9.918;2022-10-20T17:28:58;10.47;;;7.00;;
6436;SDS011;3251;53.550;9.918;2022-10-20T17:31:24;12.30;;;7.67;;
6436;SDS011;3251;53.550;9.918;2022-10-20T17:33:50;8.37;;;6.40;;
6436;SDS011;3251;53.550;9.918;2022-10-20T17:36:16;9.87;;;6.07;;
6436;SDS011;3251;53.550;9.918;2022-10-20T17:38:43;9.53;;;7.23;;